SVA41 OEJN-KLAX
Flight info
| Callsign | SVA41 |
|---|---|
| Flight time | N/A |
| Altitude | 30000 |
| Route | MIGDA L677 WEJ M449 MUNRA L513 QTR01/N0497F310 M319 MOUAB/N0499F300 L53 TALMI Z85 ADLOD J10 NAT H14 MERVA N131 DOREN UA28 MUT UL621 BUMOM/N0494F320 UL621 BUK UM861 RAKUR/K0909F320 M856 ROMOK M861 GRD L32 SOTET/N0488F320 L32 SUWGI DCT TIRIN M996 GELDA DCT INGIS DCT MILNU DCT XELVI/N0496F340 DCT NELSU DCT TEDVU/M084F340 DCT 67N004W 69N016W 71N031W 70N047W 69N061W/N0483F360 67N073W DCT YZS J540 YVC/N0489F380 Q959 MEETO Q896 YQL DCT ETLEM/N0481F370 Q842 PROXI/N0479F390 Q842 PICHO/N0485F380 Q842 WINEN/N0489F390 Q73 EEVUN/N0490F380 Q73 HAKMN ANJLL4 |
| Aircraft | B77W/H-SDE1E2E3FGHIJ2J3J4J5M1RWXY/LB1D1 |
Departure
| Time | 2026-05-05 09:21 |
|---|---|
| Airport | King Abdulaziz International Airport (OEJN) |
Arrival
| Time | N/A |
|---|---|
| Airport | Los Angeles International Airport (KLAX) |
| Time | Latitude | Longitude | Altitude | Speed | Heading |
|---|---|---|---|---|---|
| 2026-05-05 08:39 | 21.66955 | 39.16789 | 35 ft | 0 kts | 21° |
| 2026-05-05 09:07 | 21.66941 | 39.16783 | 34 ft | 4 kts | 21° |
| 2026-05-05 09:07 | 21.66916 | 39.16772 | 35 ft | 4 kts | 21° |
| 2026-05-05 09:07 | 21.66893 | 39.16763 | 34 ft | 4 kts | 16° |
| 2026-05-05 09:07 | 21.66870 | 39.16762 | 33 ft | 4 kts | 321° |
| 2026-05-05 09:08 | 21.66855 | 39.16785 | 34 ft | 4 kts | 295° |
| 2026-05-05 09:08 | 21.66849 | 39.16799 | 33 ft | 1 kts | 296° |
| 2026-05-05 09:08 | 21.66848 | 39.16800 | 33 ft | 0 kts | 296° |
| 2026-05-05 09:14 | 21.66855 | 39.16785 | 35 ft | 5 kts | 296° |
| 2026-05-05 09:14 | 21.66878 | 39.16722 | 35 ft | 13 kts | 288° |
| 2026-05-05 09:15 | 21.66896 | 39.16630 | 35 ft | 12 kts | 281° |
| 2026-05-05 09:15 | 21.66883 | 39.16540 | 35 ft | 12 kts | 244° |
| 2026-05-05 09:15 | 21.66856 | 39.16452 | 36 ft | 12 kts | 248° |
| 2026-05-05 09:15 | 21.66786 | 39.16423 | 36 ft | 12 kts | 161° |
| 2026-05-05 09:16 | 21.66704 | 39.16454 | 36 ft | 12 kts | 160° |
| 2026-05-05 09:16 | 21.66623 | 39.16485 | 36 ft | 12 kts | 160° |
| 2026-05-05 09:16 | 21.66541 | 39.16516 | 36 ft | 12 kts | 159° |
| 2026-05-05 09:16 | 21.66462 | 39.16549 | 36 ft | 12 kts | 159° |
| 2026-05-05 09:17 | 21.66379 | 39.16582 | 36 ft | 12 kts | 160° |
| 2026-05-05 09:17 | 21.66298 | 39.16614 | 35 ft | 12 kts | 160° |
| 2026-05-05 09:17 | 21.66223 | 39.16643 | 35 ft | 9 kts | 164° |
| 2026-05-05 09:17 | 21.66176 | 39.16607 | 35 ft | 9 kts | 243° |
| 2026-05-05 09:18 | 21.66153 | 39.16544 | 35 ft | 9 kts | 250° |
| 2026-05-05 09:18 | 21.66132 | 39.16482 | 35 ft | 5 kts | 252° |
| 2026-05-05 09:18 | 21.66135 | 39.16474 | 35 ft | 3 kts | 294° |
| 2026-05-05 09:18 | 21.66160 | 39.16468 | 35 ft | 5 kts | 358° |
| 2026-05-05 09:19 | 21.66205 | 39.16457 | 35 ft | 0 kts | 340° |
| 2026-05-05 09:20 | 21.66205 | 39.16456 | 35 ft | 0 kts | 340° |
| 2026-05-05 09:20 | 21.66230 | 39.16447 | 35 ft | 12 kts | 340° |
| 2026-05-05 09:20 | 21.66465 | 39.16355 | 40 ft | 69 kts | 340° |
| 2026-05-05 09:20 | 21.67141 | 39.16087 | 40 ft | 137 kts | 340° |
| 2026-05-05 09:21 | 21.68221 | 39.15658 | 39 ft | 189 kts | 339° |
| 2026-05-05 09:21 | 21.69526 | 39.15155 | 385 ft | 203 kts | 339° |
| 2026-05-05 09:21 | 21.70844 | 39.14618 | 1075 ft | 201 kts | 338° |
| 2026-05-05 09:21 | 21.72186 | 39.14079 | 1668 ft | 208 kts | 340° |
| 2026-05-05 09:22 | 21.73495 | 39.13552 | 2408 ft | 199 kts | 340° |
| 2026-05-05 09:22 | 21.74858 | 39.12997 | 2537 ft | 223 kts | 340° |
| 2026-05-05 09:22 | 21.76365 | 39.12382 | 2823 ft | 236 kts | 339° |
| 2026-05-05 09:22 | 21.77902 | 39.11735 | 3246 ft | 243 kts | 340° |
| 2026-05-05 09:23 | 21.79556 | 39.11106 | 3510 ft | 259 kts | 341° |
| 2026-05-05 09:23 | 21.81265 | 39.10465 | 4074 ft | 260 kts | 340° |
| 2026-05-05 09:23 | 21.83008 | 39.09801 | 4456 ft | 273 kts | 340° |
| 2026-05-05 09:23 | 21.84810 | 39.09101 | 4914 ft | 279 kts | 339° |
| 2026-05-05 09:24 | 21.86014 | 39.08628 | 5313 ft | 280 kts | 339° |
| 2026-05-05 09:24 | 21.87861 | 39.07902 | 5872 ft | 282 kts | 339° |
| 2026-05-05 09:24 | 21.89722 | 39.07166 | 5948 ft | 286 kts | 338° |
| 2026-05-05 09:24 | 21.91540 | 39.06344 | 6021 ft | 282 kts | 335° |
| 2026-05-05 09:25 | 21.93314 | 39.05476 | 6527 ft | 281 kts | 333° |
| 2026-05-05 09:25 | 21.95107 | 39.04603 | 7066 ft | 285 kts | 334° |
| 2026-05-05 09:25 | 21.96946 | 39.03717 | 7469 ft | 294 kts | 334° |
| 2026-05-05 09:25 | 21.98812 | 39.02824 | 8062 ft | 294 kts | 334° |
| 2026-05-05 09:26 | 22.00699 | 39.01922 | 8567 ft | 299 kts | 334° |
| 2026-05-05 09:26 | 22.02605 | 39.01011 | 9127 ft | 301 kts | 334° |
| 2026-05-05 09:26 | 22.04522 | 39.00092 | 9677 ft | 304 kts | 332° |
| 2026-05-05 09:26 | 22.06466 | 38.99161 | 10145 ft | 308 kts | 333° |
| 2026-05-05 09:27 | 22.08470 | 38.98201 | 10364 ft | 324 kts | 332° |
| 2026-05-05 09:27 | 22.10588 | 38.97184 | 10491 ft | 342 kts | 333° |
| 2026-05-05 09:27 | 22.12819 | 38.96115 | 10634 ft | 360 kts | 333° |
| 2026-05-05 09:27 | 22.15163 | 38.94991 | 10797 ft | 376 kts | 334° |
| 2026-05-05 09:28 | 22.17593 | 38.93830 | 11127 ft | 387 kts | 332° |
| 2026-05-05 09:28 | 22.20071 | 38.92648 | 11626 ft | 393 kts | 334° |
| 2026-05-05 09:28 | 22.22552 | 38.91465 | 12128 ft | 398 kts | 332° |
| 2026-05-05 09:28 | 22.25094 | 38.90249 | 12689 ft | 401 kts | 333° |
| 2026-05-05 09:29 | 22.27656 | 38.89023 | 13292 ft | 404 kts | 332° |
| 2026-05-05 09:29 | 22.30239 | 38.87784 | 13832 ft | 408 kts | 332° |
| 2026-05-05 09:29 | 22.32844 | 38.86534 | 14348 ft | 411 kts | 332° |
| 2026-05-05 09:29 | 22.35465 | 38.85277 | 14896 ft | 413 kts | 332° |
| 2026-05-05 09:30 | 22.38101 | 38.84012 | 15434 ft | 416 kts | 332° |
| 2026-05-05 09:30 | 22.40755 | 38.82737 | 15960 ft | 419 kts | 332° |